Terminal Aerodrome Forecast
Issued by NWS Huntsville, AL

Home | Current Version | Previous Version | Text Only | Print | Product List | Glossary On
Versions: 1 2 3 4 5 6 7 8 9 10 11 12 13 14 15 16 17 18 19 20 21 22 23 24 25 26 27 28 29 30 31 32 33 34 35 36 37 38
000
FTUS44 KHUN 220520
TAFHSV
TAF
KHSV 220520Z 2206/2306 20012KT P6SM VCSH BKN050 BKN250
     FM221100 17011KT 6SM -SHRA BR OVC015
     FM221500 19011KT P6SM OVC015
     FM221800 19010G15KT P6SM SCT015 SCT060
     FM230000 15004KT P6SM OVC050=

USA.gov is the U.S. government's official web portal to all federal, state and local government web resources and services.